createdAt,value
2018-12-22T04:14:21.416Z,0.00
2018-12-22T04:15:21.304Z,0.00
2018-12-22T04:16:21.242Z,0.00
2018-12-22T04:17:21.250Z,0.00
2018-12-22T04:18:21.198Z,0.00
2018-12-22T04:19:21.301Z,0.00
2018-12-22T04:20:21.209Z,0.00
2018-12-22T04:21:21.138Z,0.00
2018-12-22T04:22:21.106Z,0.00
2018-12-22T04:23:21.102Z,0.00
2018-12-22T04:24:21.115Z,0.00
2018-12-22T04:25:21.141Z,0.00
2018-12-22T04:26:21.044Z,0.00
2018-12-22T04:27:20.977Z,0.00
2018-12-22T04:28:20.963Z,0.00
2018-12-22T04:29:20.964Z,0.00
2018-12-22T04:30:21.033Z,0.00
2018-12-22T04:31:20.876Z,0.00
2018-12-22T04:32:20.864Z,0.00
2018-12-22T04:33:20.848Z,0.00
2018-12-22T04:34:20.838Z,0.00
2018-12-22T04:35:20.859Z,0.00
2018-12-22T04:36:20.750Z,0.00
2018-12-22T04:37:20.731Z,0.00
2018-12-22T04:38:20.702Z,0.00
2018-12-22T04:39:20.657Z,0.00
2018-12-22T04:40:20.748Z,0.00
2018-12-22T04:41:20.628Z,0.00
2018-12-22T04:42:20.581Z,0.00
2018-12-22T04:43:20.566Z,0.00
2018-12-22T04:44:20.547Z,0.00
2018-12-22T04:45:20.551Z,0.00
2018-12-22T04:46:20.660Z,0.00
2018-12-22T04:47:20.463Z,0.00
2018-12-22T04:48:20.529Z,0.00
2018-12-22T04:49:20.414Z,0.00
2018-12-22T04:50:20.363Z,0.00
2018-12-22T04:51:20.368Z,0.00
2018-12-22T04:52:20.440Z,0.00
2018-12-22T04:53:20.378Z,0.00
2018-12-22T04:54:20.289Z,0.00
2018-12-22T04:55:20.253Z,0.00
2018-12-22T04:56:20.225Z,0.00
2018-12-22T04:57:20.244Z,0.00
2018-12-22T04:58:20.277Z,0.00
2018-12-22T04:59:20.135Z,0.00
2018-12-22T05:00:20.112Z,0.00
2018-12-22T05:01:20.088Z,0.00
2018-12-22T05:02:20.072Z,0.00
2018-12-22T05:03:20.179Z,0.00
2018-12-22T05:04:20.020Z,0.00
2018-12-22T05:05:20.032Z,0.00
2018-12-22T05:06:19.947Z,0.00
2018-12-22T05:07:19.951Z,0.00
2018-12-22T05:08:20.023Z,0.00
2018-12-22T05:09:19.965Z,0.00
2018-12-22T05:10:19.879Z,0.00
2018-12-22T05:11:19.876Z,0.00
2018-12-22T05:12:19.818Z,0.00
2018-12-22T05:13:19.896Z,0.00
2018-12-22T05:14:19.787Z,0.00
2018-12-22T05:15:19.727Z,0.00
2018-12-22T05:16:19.812Z,0.00
2018-12-22T05:17:19.705Z,0.00
2018-12-22T05:18:19.753Z,0.00
2018-12-22T05:19:19.644Z,0.00
2018-12-22T05:20:19.589Z,0.00
2018-12-22T05:21:19.621Z,0.00
2018-12-22T05:22:19.554Z,0.00
2018-12-22T05:23:19.615Z,0.00
2018-12-22T05:24:19.492Z,0.00
2018-12-22T05:25:19.468Z,0.00
2018-12-22T05:26:19.444Z,0.00
2018-12-22T05:27:19.414Z,0.00
2018-12-22T05:28:19.405Z,0.00
2018-12-22T05:29:19.421Z,0.00
2018-12-22T05:30:19.346Z,0.00
2018-12-22T05:31:19.320Z,0.00
2018-12-22T05:32:19.290Z,0.00
2018-12-22T05:33:19.302Z,0.00
2018-12-22T05:34:19.276Z,0.00
2018-12-22T05:35:19.311Z,0.00
2018-12-22T05:36:19.197Z,0.00
2018-12-22T05:37:19.156Z,0.00
2018-12-22T05:38:19.127Z,0.00
2018-12-22T05:39:19.132Z,0.00
2018-12-22T05:40:19.262Z,0.00
2018-12-22T05:41:19.884Z,0.00
2018-12-22T05:42:19.028Z,0.00
2018-12-22T05:43:18.993Z,0.00
2018-12-22T05:44:18.980Z,0.00
2018-12-22T05:45:19.050Z,0.00
2018-12-22T05:46:18.906Z,0.00
2018-12-22T05:47:18.893Z,0.00
2018-12-22T05:48:18.854Z,0.00
2018-12-22T05:49:18.835Z,0.00
2018-12-22T05:50:18.909Z,0.00
2018-12-22T05:51:18.858Z,0.00
2018-12-22T05:52:18.778Z,0.00
2018-12-22T05:53:18.739Z,0.00
2018-12-22T05:54:18.745Z,0.00
2018-12-22T05:55:18.785Z,0.00
2018-12-22T05:56:18.653Z,0.00
2018-12-22T05:57:18.617Z,0.00
2018-12-22T05:58:18.601Z,0.00
2018-12-22T05:59:18.571Z,0.00
2018-12-22T06:00:18.655Z,0.00
2018-12-22T06:01:18.533Z,0.00
2018-12-22T06:02:18.516Z,0.00
2018-12-22T06:03:18.483Z,0.00
2018-12-22T06:04:18.491Z,0.00
2018-12-22T06:05:18.433Z,0.00
2018-12-22T06:06:18.539Z,0.00
2018-12-22T06:07:18.394Z,0.00
2018-12-22T06:08:18.386Z,0.00
2018-12-22T06:09:18.347Z,0.00
2018-12-22T06:10:18.330Z,0.00
2018-12-22T06:11:18.352Z,0.00
2018-12-22T06:12:18.375Z,0.00
2018-12-22T06:13:18.244Z,0.00
2018-12-22T06:14:18.201Z,0.00
2018-12-22T06:15:18.184Z,0.00
2018-12-22T06:16:18.168Z,0.00
2018-12-22T06:17:18.302Z,0.00
2018-12-22T06:18:18.095Z,0.00
2018-12-22T06:19:18.063Z,0.00
2018-12-22T06:20:18.040Z,0.00
2018-12-22T06:21:18.013Z,0.00
2018-12-22T06:22:18.083Z,0.00
2018-12-22T06:23:17.953Z,0.00
2018-12-22T06:24:17.951Z,0.00
2018-12-22T06:25:17.904Z,0.00
2018-12-22T06:26:17.864Z,0.00
2018-12-22T06:27:17.973Z,0.00
2018-12-22T06:28:17.801Z,0.00
2018-12-22T06:29:17.788Z,0.00
2018-12-22T06:30:17.806Z,0.00
2018-12-22T06:31:17.750Z,0.00
2018-12-22T06:32:17.799Z,0.00
2018-12-22T06:33:17.693Z,0.00
2018-12-22T06:34:17.675Z,0.00
2018-12-22T06:35:17.644Z,0.00
2018-12-22T06:36:17.616Z,0.00
2018-12-22T06:37:17.717Z,0.00
2018-12-22T06:38:17.604Z,0.00
2018-12-22T06:39:17.568Z,0.00
2018-12-22T06:40:17.501Z,0.00
2018-12-22T06:41:17.462Z,0.00
2018-12-22T06:42:17.454Z,0.00
2018-12-22T06:43:17.463Z,0.00
2018-12-22T06:44:17.418Z,0.00
2018-12-22T06:45:17.382Z,0.00
2018-12-22T06:46:17.351Z,0.00
2018-12-22T06:47:17.342Z,0.00
2018-12-22T06:48:17.281Z,0.00
2018-12-22T06:49:17.360Z,0.00
2018-12-22T06:50:17.252Z,0.00
2018-12-22T06:51:17.201Z,0.00
2018-12-22T06:52:17.186Z,0.00
2018-12-22T06:53:17.152Z,0.00
2018-12-22T06:54:17.221Z,0.00
2018-12-22T06:55:17.113Z,0.00
2018-12-22T06:56:17.088Z,0.00
2018-12-22T06:57:17.054Z,0.00
2018-12-22T06:58:17.045Z,0.00
2018-12-22T06:59:17.108Z,0.00
2018-12-22T07:00:17.904Z,0.00
2018-12-22T07:01:16.945Z,0.00
2018-12-22T07:02:16.932Z,0.00
2018-12-22T07:03:16.905Z,0.00
2018-12-22T07:04:16.933Z,0.00
2018-12-22T07:05:16.899Z,0.00
2018-12-22T07:06:16.815Z,0.00
2018-12-22T07:07:16.794Z,0.00
2018-12-22T07:08:16.784Z,0.00
2018-12-22T07:09:16.887Z,0.00
2018-12-22T07:10:16.720Z,0.00
2018-12-22T07:11:16.712Z,0.00
2018-12-22T07:12:16.680Z,0.00
2018-12-22T07:13:16.627Z,0.00
2018-12-22T07:14:16.722Z,0.00
2018-12-22T07:15:16.586Z,0.00
2018-12-22T07:16:16.576Z,0.00
2018-12-22T07:17:16.526Z,0.00
2018-12-22T07:18:16.557Z,0.00
2018-12-22T07:19:16.489Z,0.00
2018-12-22T07:20:16.540Z,0.00
2018-12-22T07:21:16.418Z,0.00
2018-12-22T07:22:16.398Z,0.00
2018-12-22T07:23:16.424Z,0.00
2018-12-22T07:24:16.352Z,0.00
2018-12-22T07:25:16.335Z,0.00
2018-12-22T07:26:16.403Z,0.00
2018-12-22T07:27:16.271Z,0.00
2018-12-22T07:28:16.257Z,0.00
2018-12-22T07:29:16.236Z,0.00
2018-12-22T07:30:16.192Z,0.00
2018-12-22T07:31:16.284Z,0.00
2018-12-22T07:32:16.160Z,0.00
2018-12-22T07:33:16.120Z,0.00
2018-12-22T07:34:16.075Z,0.00
2018-12-22T07:35:16.069Z,0.00
2018-12-22T07:36:16.202Z,0.00
2018-12-22T07:37:16.009Z,0.00
2018-12-22T07:38:16.008Z,0.00
2018-12-22T07:39:15.959Z,0.00
2018-12-22T07:40:15.941Z,0.00
2018-12-22T07:41:15.936Z,0.00
2018-12-22T07:42:15.882Z,0.00
2018-12-22T07:43:15.862Z,0.00
2018-12-22T07:44:15.839Z,0.00
2018-12-22T07:45:15.795Z,0.00
2018-12-22T07:46:15.880Z,0.00
2018-12-22T07:47:15.743Z,0.00
2018-12-22T07:48:15.715Z,0.00
2018-12-22T07:49:15.704Z,0.00
2018-12-22T07:50:15.681Z,0.00
2018-12-22T07:51:15.684Z,0.00
2018-12-22T07:52:15.726Z,0.00
2018-12-22T07:53:15.579Z,0.00
2018-12-22T07:54:15.556Z,0.00
2018-12-22T07:55:15.530Z,0.00
2018-12-22T07:56:15.527Z,0.00
2018-12-22T07:57:15.478Z,0.00
2018-12-22T07:58:15.491Z,0.00
2018-12-22T07:59:15.418Z,0.00
2018-12-22T08:00:15.400Z,0.00
2018-12-22T08:01:15.399Z,0.00
2018-12-22T08:02:15.354Z,0.00
2018-12-22T08:03:15.328Z,0.00
2018-12-22T08:04:15.404Z,0.00
2018-12-22T08:05:15.274Z,0.00
2018-12-22T08:06:15.232Z,0.00
2018-12-22T08:07:15.222Z,0.00
2018-12-22T08:08:15.184Z,0.00
2018-12-22T08:09:15.260Z,0.00
2018-12-22T08:10:15.136Z,0.00
2018-12-22T08:11:15.151Z,0.00
2018-12-22T08:12:15.071Z,0.00
2018-12-22T08:13:15.057Z,0.00
2018-12-22T08:14:15.137Z,0.00
2018-12-22T08:15:15.011Z,0.00
2018-12-22T08:16:15.012Z,0.00
2018-12-22T08:17:14.955Z,0.00
2018-12-22T08:18:14.933Z,0.00
2018-12-22T08:19:14.998Z,0.00
2018-12-22T08:20:14.870Z,0.00
2018-12-22T08:21:14.852Z,0.00
2018-12-22T08:22:14.843Z,0.00
2018-12-22T08:23:14.802Z,0.00
2018-12-22T08:24:14.810Z,0.00
2018-12-22T08:25:14.863Z,0.00
2018-12-22T08:26:14.757Z,0.00
2018-12-22T08:27:14.758Z,0.00
2018-12-22T08:28:14.684Z,0.00
2018-12-22T08:29:14.658Z,0.00
2018-12-22T08:30:14.647Z,0.00
2018-12-22T08:31:14.641Z,0.00
2018-12-22T08:32:14.553Z,0.00
2018-12-22T08:33:14.517Z,0.00
2018-12-22T08:34:14.496Z,0.00
2018-12-22T08:35:14.456Z,0.00
2018-12-22T08:36:14.421Z,0.00
2018-12-22T08:37:14.547Z,0.00
2018-12-22T08:38:14.398Z,0.00
2018-12-22T08:39:14.387Z,0.00
2018-12-22T08:40:14.319Z,0.00
2018-12-22T08:41:14.319Z,0.00
2018-12-22T08:42:14.316Z,0.00
2018-12-22T08:43:14.362Z,0.00
2018-12-22T08:44:14.238Z,0.00
2018-12-22T08:45:14.243Z,0.00
2018-12-22T08:46:14.152Z,0.00
2018-12-22T08:47:14.183Z,0.00
2018-12-22T08:48:14.226Z,0.00
2018-12-22T08:49:14.131Z,0.00
2018-12-22T08:50:14.077Z,0.00
2018-12-22T08:51:14.057Z,0.00
2018-12-22T08:52:14.041Z,0.00
2018-12-22T08:53:14.128Z,0.00
2018-12-22T08:56:06.444Z,0.00
2018-12-22T08:57:06.359Z,0.00
2018-12-22T08:58:06.351Z,0.00
2018-12-22T08:59:06.395Z,0.00
2018-12-22T09:00:06.282Z,0.00
2018-12-22T09:01:06.250Z,0.00
2018-12-22T09:02:06.230Z,0.00
2018-12-22T09:03:06.192Z,0.00
2018-12-22T09:04:06.270Z,0.00
2018-12-22T09:05:06.174Z,0.00
2018-12-22T09:06:06.123Z,0.00
2018-12-22T09:07:06.096Z,0.00
2018-12-22T09:08:06.093Z,0.00
2018-12-22T09:09:06.128Z,0.00
2018-12-22T09:10:05.995Z,0.00
2018-12-22T09:11:05.966Z,0.00
2018-12-22T09:12:05.953Z,0.00
2018-12-22T09:13:05.976Z,0.00
2018-12-22T09:14:06.029Z,0.00
2018-12-22T09:15:05.871Z,0.00
2018-12-22T09:16:05.845Z,0.00
2018-12-22T09:17:05.837Z,0.00
2018-12-22T09:18:05.818Z,0.00
2018-12-22T09:19:05.838Z,0.00
2018-12-22T09:20:05.830Z,0.00
2018-12-22T09:21:05.690Z,0.00
2018-12-22T09:22:05.741Z,0.00
2018-12-22T09:23:06.245Z,0.00
2018-12-22T09:24:05.639Z,0.00
2018-12-22T09:25:05.749Z,0.00
2018-12-22T09:26:05.630Z,0.00
2018-12-22T09:27:05.584Z,0.00
2018-12-22T09:28:05.548Z,0.00
2018-12-22T09:29:05.509Z,0.00
2018-12-22T09:30:06.500Z,0.00
2018-12-22T09:31:05.542Z,0.00
2018-12-22T09:32:05.428Z,0.00
2018-12-22T09:33:05.378Z,0.00
2018-12-22T09:34:13.068Z,0.00
2018-12-22T09:35:05.380Z,0.00
2018-12-22T09:36:05.381Z,0.00
2018-12-22T09:37:06.886Z,0.00
2018-12-22T09:38:05.262Z,0.00
2018-12-22T09:39:05.228Z,0.00
2018-12-22T09:40:05.200Z,0.00
2018-12-22T09:41:05.165Z,0.00
2018-12-22T09:42:05.260Z,0.00
2018-12-22T09:43:05.107Z,0.00
2018-12-22T09:44:05.081Z,0.00
2018-12-22T09:45:05.049Z,0.00
2018-12-22T09:46:05.063Z,0.00
2018-12-22T09:47:05.054Z,0.00
2018-12-22T09:48:04.974Z,0.00
2018-12-22T09:49:04.971Z,0.00
2018-12-22T09:50:04.916Z,0.00
2018-12-22T09:51:05.016Z,0.00
2018-12-22T09:52:04.926Z,0.00
2018-12-22T09:53:04.954Z,0.00
2018-12-22T09:54:04.821Z,0.00
2018-12-22T09:55:04.792Z,0.00
2018-12-22T09:56:04.771Z,0.00
2018-12-22T09:57:04.746Z,0.00
2018-12-22T09:58:04.855Z,0.00
2018-12-22T09:59:06.435Z,0.00
2018-12-22T10:00:04.686Z,0.00
2018-12-22T10:01:09.231Z,0.00
2018-12-22T10:02:04.607Z,0.00
2018-12-22T10:03:04.675Z,0.00
2018-12-22T10:04:04.565Z,0.00
2018-12-22T10:05:04.558Z,0.00
2018-12-22T10:06:04.494Z,0.00
2018-12-22T10:07:04.459Z,0.00
2018-12-22T10:08:04.476Z,0.00
2018-12-22T10:09:04.525Z,0.00
2018-12-22T10:10:04.386Z,0.00
2018-12-22T10:11:04.351Z,0.00
2018-12-22T10:12:04.310Z,0.00
2018-12-22T10:13:04.350Z,0.00
2018-12-22T10:14:04.260Z,0.00
2018-12-22T10:15:04.424Z,0.00
2018-12-22T10:16:04.258Z,0.00
2018-12-22T10:17:04.995Z,0.00
2018-12-22T10:18:04.238Z,0.00
2018-12-22T10:19:04.158Z,0.00
2018-12-22T10:20:04.218Z,0.00
2018-12-22T10:21:04.122Z,0.00
2018-12-22T10:22:04.105Z,0.00
2018-12-22T10:23:04.053Z,0.00
2018-12-22T10:24:04.012Z,0.00
2018-12-22T10:25:04.033Z,0.00
2018-12-22T10:26:04.016Z,0.00
2018-12-22T10:27:03.935Z,0.00
2018-12-22T10:28:03.974Z,0.00
2018-12-22T10:29:03.878Z,0.00
2018-12-22T10:30:03.864Z,0.00
2018-12-22T10:31:03.921Z,0.00
2018-12-22T10:32:03.766Z,0.00
2018-12-22T10:33:03.779Z,0.00
2018-12-22T10:34:03.730Z,0.00
2018-12-22T10:35:03.705Z,0.00
2018-12-22T10:36:03.818Z,0.00
2018-12-22T10:37:03.655Z,0.00
2018-12-22T10:38:03.618Z,0.00
2018-12-22T10:39:03.630Z,0.00
2018-12-22T10:40:03.600Z,0.00
2018-12-22T10:41:03.647Z,0.00
2018-12-22T10:42:03.509Z,0.00
2018-12-22T10:43:03.506Z,0.00
2018-12-22T10:44:03.458Z,0.00
2018-12-22T10:45:03.466Z,0.00
2018-12-22T10:46:03.431Z,0.00
2018-12-22T10:47:03.485Z,0.00
2018-12-22T10:48:03.341Z,0.00
2018-12-22T10:49:03.327Z,0.00
2018-12-22T10:50:03.299Z,0.00
2018-12-22T10:51:03.303Z,0.00
2018-12-22T10:52:03.370Z,0.00
2018-12-22T10:53:03.196Z,0.00
2018-12-22T10:54:03.211Z,0.00
2018-12-22T10:55:03.191Z,0.00
2018-12-22T10:56:03.154Z,0.00
2018-12-22T10:57:04.187Z,0.00
2018-12-22T10:58:03.180Z,0.00
2018-12-22T10:59:03.055Z,0.00
2018-12-22T11:00:03.026Z,0.00
2018-12-22T11:01:02.993Z,0.00
2018-12-22T11:02:02.989Z,0.00
2018-12-22T11:03:03.051Z,0.00
2018-12-22T11:04:02.913Z,0.00
2018-12-22T11:05:02.877Z,0.00
2018-12-22T11:06:02.869Z,0.00
2018-12-22T11:07:02.816Z,0.00
2018-12-22T11:08:03.158Z,0.00
2018-12-22T11:09:02.783Z,0.00
2018-12-22T11:10:02.845Z,0.00
2018-12-22T11:11:02.717Z,0.00
2018-12-22T11:12:02.681Z,0.00
2018-12-22T11:13:02.836Z,0.00
2018-12-22T11:14:02.683Z,0.00
2018-12-22T11:15:02.631Z,0.00
2018-12-22T11:16:02.585Z,0.00
2018-12-22T11:17:02.539Z,0.00
2018-12-22T11:18:02.607Z,0.00
2018-12-22T11:19:02.506Z,0.00
2018-12-22T11:20:02.486Z,0.00
2018-12-22T11:21:02.468Z,0.00
2018-12-22T11:22:02.508Z,0.00
2018-12-22T11:23:02.373Z,0.00
2018-12-22T11:24:03.002Z,0.00
2018-12-22T11:25:02.334Z,0.00
2018-12-22T11:26:02.307Z,0.00
2018-12-22T11:27:02.270Z,0.00
2018-12-22T11:28:02.292Z,0.00
2018-12-22T11:29:02.322Z,0.00
2018-12-22T11:30:02.303Z,0.00
2018-12-22T11:31:02.180Z,0.00
2018-12-22T11:32:02.143Z,0.00
2018-12-22T11:33:03.339Z,0.00
2018-12-22T11:34:02.088Z,0.00
2018-12-22T11:35:02.117Z,0.00
2018-12-22T11:36:02.115Z,0.00
2018-12-22T11:37:02.010Z,0.00
2018-12-22T11:38:02.072Z,4.00
2018-12-22T11:39:01.964Z,0.00
2018-12-22T11:40:01.929Z,0.00
2018-12-22T11:41:02.053Z,4.00
2018-12-22T11:42:01.884Z,0.00
2018-12-22T11:43:01.834Z,4.00
2018-12-22T11:44:01.817Z,0.00
2018-12-22T11:45:01.787Z,4.00
2018-12-22T11:46:01.864Z,4.00
2018-12-22T11:47:01.854Z,8.00
2018-12-22T11:48:01.710Z,8.00
2018-12-22T11:49:01.675Z,4.00
2018-12-22T11:50:01.646Z,8.00
2018-12-22T11:51:01.736Z,8.00
2018-12-22T11:52:01.608Z,8.00
2018-12-22T11:53:01.587Z,16.00
2018-12-22T11:54:01.537Z,16.00
2018-12-22T11:55:01.551Z,12.00
2018-12-22T11:56:01.496Z,20.00
2018-12-22T11:58:01.526Z,20.00
2018-12-22T11:59:01.426Z,24.00
2018-12-22T12:00:01.415Z,24.00
2018-12-22T12:01:01.388Z,28.00
2018-12-22T12:02:09.286Z,32.00
2018-12-22T12:03:01.289Z,32.00
2018-12-22T12:04:01.366Z,32.00
2018-12-22T12:05:01.231Z,36.00
2018-12-22T12:06:01.249Z,40.00
2018-12-22T12:07:01.172Z,40.00
2018-12-22T12:08:01.153Z,44.00
2018-12-22T12:09:01.167Z,44.00
2018-12-22T12:10:01.167Z,48.00
2018-12-22T12:11:01.104Z,48.00
2018-12-22T12:12:01.049Z,52.00
2018-12-22T12:13:01.024Z,56.00
2018-12-22T12:14:01.031Z,56.00
2018-12-22T12:15:01.071Z,60.00
2018-12-22T12:16:00.932Z,60.00
2018-12-22T12:17:00.937Z,68.00
2018-12-22T12:18:00.893Z,68.00
2018-12-22T12:19:00.836Z,68.00
2018-12-22T12:20:00.940Z,76.00
2018-12-22T12:21:00.855Z,76.00
2018-12-22T12:22:00.877Z,84.00
2018-12-22T12:23:00.751Z,80.00
2018-12-22T12:24:00.726Z,84.00
2018-12-22T12:25:00.834Z,84.00
2018-12-22T12:26:00.669Z,92.00
2018-12-22T12:27:00.715Z,92.00
2018-12-22T12:28:00.614Z,100.00
2018-12-22T12:29:00.592Z,100.00
2018-12-22T12:30:00.732Z,100.00
2018-12-22T12:31:00.508Z,104.00
2018-12-22T12:32:00.505Z,108.00
2018-12-22T12:33:00.466Z,112.00
2018-12-22T12:34:00.466Z,120.00
2018-12-22T12:35:00.457Z,148.00
2018-12-22T12:36:00.428Z,268.00
2018-12-22T12:37:00.352Z,552.00
2018-12-22T12:38:00.415Z,796.00
2018-12-22T12:39:00.299Z,332.00
2018-12-22T12:40:00.304Z,708.00
2018-12-22T12:41:00.243Z,352.00
2018-12-22T12:42:00.330Z,176.00
2018-12-22T12:43:00.208Z,216.00
2018-12-22T12:44:00.199Z,160.00
2018-12-22T12:45:00.256Z,204.00
2018-12-22T12:46:00.109Z,152.00
2018-12-22T12:47:00.180Z,140.00
2018-12-22T12:48:00.069Z,136.00
2018-12-22T12:49:00.051Z,140.00
2018-12-22T12:50:00.044Z,144.00
2018-12-22T12:50:59.955Z,144.00
2018-12-22T12:52:00.054Z,148.00
2018-12-22T12:52:59.961Z,148.00
2018-12-22T12:53:59.902Z,156.00
2018-12-22T12:54:59.869Z,164.00
2018-12-22T12:55:59.843Z,164.00
2018-12-22T12:56:59.915Z,164.00
2018-12-22T12:57:59.795Z,172.00
2018-12-22T12:58:59.778Z,176.00
2018-12-22T12:59:59.743Z,180.00
2018-12-22T13:00:59.714Z,180.00
2018-12-22T13:02:01.336Z,176.00
2018-12-22T13:02:59.666Z,188.00
2018-12-22T13:03:59.666Z,196.00
2018-12-22T13:04:59.641Z,196.00
2018-12-22T13:05:59.557Z,196.00
2018-12-22T13:06:59.637Z,200.00
2018-12-22T13:07:59.531Z,200.00
2018-12-22T13:08:59.539Z,204.00
2018-12-22T13:09:59.531Z,208.00
2018-12-22T13:10:59.537Z,212.00
2018-12-22T13:11:59.410Z,212.00
2018-12-22T13:12:59.733Z,224.00
2018-12-22T13:13:59.373Z,220.00
2018-12-22T13:14:59.349Z,220.00
2018-12-22T13:15:59.307Z,224.00
2018-12-22T13:16:59.278Z,224.00
2018-12-22T13:17:59.322Z,252.00
2018-12-22T13:18:59.379Z,228.00
2018-12-22T13:19:59.231Z,232.00
2018-12-22T13:20:59.169Z,236.00
2018-12-22T13:21:59.161Z,248.00
2018-12-22T13:22:59.158Z,240.00
2018-12-22T13:23:59.159Z,244.00
2018-12-22T13:24:59.086Z,248.00
2018-12-22T13:25:59.034Z,280.00
2018-12-22T13:26:59.027Z,256.00
2018-12-22T13:27:59.053Z,288.00
2018-12-22T13:28:59.079Z,260.00
2018-12-22T13:29:59.013Z,256.00
2018-12-22T13:30:59.224Z,260.00
2018-12-22T13:31:59.605Z,260.00
2018-12-22T13:32:59.340Z,260.00
2018-12-22T13:33:58.944Z,268.00
2018-12-22T13:34:59.082Z,280.00
2018-12-22T13:35:58.962Z,264.00
2018-12-22T13:36:58.935Z,264.00
2018-12-22T13:37:58.892Z,264.00
2018-12-22T13:38:59.076Z,268.00
2018-12-22T13:39:58.713Z,268.00
2018-12-22T13:40:58.776Z,276.00
2018-12-22T13:41:58.614Z,272.00
2018-12-22T13:42:58.755Z,296.00
2018-12-22T13:43:58.670Z,276.00
2018-12-22T13:44:58.556Z,276.00
2018-12-22T13:45:58.534Z,276.00
2018-12-22T13:46:58.789Z,276.00
2018-12-22T13:47:58.692Z,280.00
2018-12-22T13:48:58.731Z,300.00
2018-12-22T13:49:58.985Z,280.00
2018-12-22T13:50:59.343Z,308.00
2018-12-22T13:51:58.369Z,284.00
2018-12-22T13:52:58.569Z,288.00
2018-12-22T13:53:58.318Z,288.00
2018-12-22T13:54:58.303Z,284.00
2018-12-22T13:55:58.481Z,284.00
2018-12-22T13:56:58.210Z,288.00
2018-12-22T13:57:58.267Z,320.00
2018-12-22T13:58:58.200Z,292.00
2018-12-22T13:59:58.482Z,292.00
2018-12-22T14:00:58.317Z,288.00
2018-12-22T14:01:58.160Z,292.00
2018-12-22T14:02:58.594Z,292.00
2018-12-22T14:03:58.270Z,292.00
2018-12-22T14:04:58.047Z,292.00
2018-12-22T14:05:58.123Z,292.00
2018-12-22T14:06:58.033Z,296.00
2018-12-22T14:07:58.178Z,296.00
2018-12-22T14:10:58.025Z,300.00
2018-12-22T14:11:58.590Z,300.00
2018-12-22T14:13:59.336Z,300.00
2018-12-22T14:14:58.317Z,300.00
2018-12-22T14:15:57.808Z,300.00
2018-12-22T14:16:58.779Z,296.00
2018-12-22T14:17:58.660Z,300.00
2018-12-22T14:19:57.746Z,300.00
2018-12-22T14:20:59.346Z,304.00
2018-12-22T14:21:57.707Z,300.00
2018-12-22T14:22:57.601Z,304.00
2018-12-22T14:23:57.661Z,304.00
2018-12-22T14:24:59.662Z,308.00
2018-12-22T14:25:58.550Z,308.00
2018-12-22T14:26:58.492Z,308.00
2018-12-22T14:28:58.437Z,304.00
2018-12-22T14:29:58.101Z,304.00
2018-12-22T14:39:51.015Z,300.00
2018-12-22T14:42:47.828Z,300.00
2018-12-22T14:43:47.006Z,300.00
2018-12-22T14:44:48.840Z,304.00
2018-12-22T14:46:47.072Z,296.00
2018-12-22T14:47:47.390Z,304.00
2018-12-22T14:52:06.597Z,288.00
2018-12-22T14:53:07.308Z,308.00
2018-12-22T14:54:07.195Z,316.00
2018-12-22T14:57:46.240Z,300.00
2018-12-22T14:58:45.941Z,300.00
2018-12-22T15:00:45.737Z,300.00
2018-12-22T15:01:45.477Z,292.00
2018-12-22T15:02:46.202Z,300.00
2018-12-22T15:03:45.899Z,292.00
2018-12-22T15:04:45.773Z,296.00
2018-12-22T15:05:45.768Z,296.00
2018-12-22T15:06:46.142Z,300.00
2018-12-22T15:09:39.219Z,296.00
2018-12-22T15:10:37.393Z,292.00
2018-12-22T15:11:37.964Z,296.00
2018-12-22T15:12:38.281Z,296.00
2018-12-22T15:13:38.013Z,296.00
2018-12-22T15:14:37.523Z,292.00
2018-12-22T15:15:38.252Z,292.00
2018-12-22T15:19:38.037Z,300.00
2018-12-22T15:20:37.971Z,292.00
2018-12-22T15:21:37.902Z,292.00
2018-12-22T15:22:37.914Z,296.00
2018-12-22T15:23:37.716Z,296.00
2018-12-22T15:24:37.963Z,296.00
2018-12-22T15:25:37.396Z,296.00
2018-12-22T15:26:37.344Z,292.00
2018-12-22T15:27:37.185Z,288.00
2018-12-22T15:28:37.903Z,296.00
2018-12-22T15:29:37.466Z,292.00
2018-12-22T15:31:37.240Z,296.00
2018-12-22T15:32:44.236Z,296.00
2018-12-22T15:33:37.979Z,296.00
2018-12-22T15:34:37.025Z,292.00
2018-12-22T15:35:37.230Z,284.00
2018-12-22T15:37:37.700Z,284.00
2018-12-22T15:38:37.058Z,296.00
2018-12-22T15:39:37.035Z,296.00
2018-12-22T15:40:37.749Z,292.00
2018-12-22T15:42:37.435Z,316.00
2018-12-22T15:43:37.038Z,272.00
2018-12-22T15:44:37.328Z,284.00
2018-12-22T15:45:37.477Z,264.00
2018-12-22T15:46:37.079Z,280.00
2018-12-22T16:15:54.719Z,292.00
2018-12-22T16:16:54.485Z,268.00
2018-12-22T16:17:53.825Z,300.00
2018-12-22T16:18:54.426Z,272.00
2018-12-22T16:19:53.561Z,288.00
2018-12-22T16:34:30.063Z,288.00
2018-12-22T16:35:30.149Z,284.00
2018-12-22T16:36:32.959Z,296.00
2018-12-22T16:37:29.367Z,284.00
2018-12-22T16:38:29.560Z,284.00
2018-12-22T16:39:30.166Z,300.00
2018-12-22T16:41:29.804Z,304.00
2018-12-22T16:43:30.397Z,300.00
2018-12-22T16:44:29.373Z,284.00
2018-12-22T16:45:30.111Z,296.00
2018-12-22T16:46:29.456Z,288.00
2018-12-22T16:47:29.571Z,296.00
2018-12-22T16:52:42.151Z,316.00
2018-12-22T16:53:41.807Z,324.00
2018-12-22T16:54:41.278Z,324.00
2018-12-22T17:00:11.883Z,368.00
2018-12-22T17:08:11.953Z,224.00
2018-12-22T17:18:17.195Z,380.00
2018-12-22T17:20:59.397Z,388.00
2018-12-22T17:24:05.776Z,420.00
2018-12-22T17:32:53.882Z,232.00
2018-12-22T17:33:53.808Z,304.00
2018-12-22T17:34:53.023Z,256.00
2018-12-22T17:35:53.240Z,256.00
2018-12-22T17:36:54.208Z,228.00
2018-12-22T17:37:53.570Z,208.00
2018-12-22T17:38:53.042Z,212.00
2018-12-22T17:39:53.606Z,232.00
